Accueil
METAR-TAF:

METAR-TAF

Aéroports :

Aéroport international de l'île de Kos

Cos, Grèce

latitude: 36-47N, longitude: 027-04E, altitude: 129 m

Observation

Le bulletin a été fait il y a 29 minutes, à 08:20 UTC
Température 14°C
Humidité 58%
Pression 1018 hPa
Visibilité 10 km ou plus
Nuages épars à une hauteur de 2500 ft

METAR: LGKO 190820Z /////KT 9999 SCT025 14/06 Q1018

Heure: 11:49 (08:49 UTC)

Prévision

Le bulletin a été fait il y a 3 heures et 49 minutes, à 05:00 UTC
Prévision valable du 19 à 06 UTC au 20 à 06 UTC
Vent 15 kt de nord avec des rafales jusqu'à 25 kt
Visibilité 10 km ou plus
Quelques nuages à une hauteur de 2000 ft

TAF: LGKO 190500Z 1906/2006 35015G25KT 9999 FEW020

Observations et prévisions météorologiques de plus de 4000 aéroports (messages METAR et TAF).

Les stations disponibles sont représentées par des disques jaunes et rouges sur la carte.

Passer la souris dessus pour voir le nom de la station.

Cliquer dessus pour voir les observations et prévisions météorologiques.

Pour changer de carte: cliquez sur les boutons verts avec une croix noire pour zoomer, sur le bouton vert avec un tiret pour effectuer un zoom arrière, ou sur les flèches vertes pour les cartes adjacentes.


METAR-TAF: